Time;durP1;ratioP1;P1;durP2;ratioP2;P2;SDS_P1;SDS_P2;PMS_P1;PMS_P2;Temp;Humidity;BMP_temperature;BMP_pressure;BME280_temperature;BME280_humidity;BME280_pressure;Samples;Min_cycle;Max_cycle;Signal;HPM_P1;HPM_P2
2024/02/24 00:01:31;;;;;;;10.23;5.68;;;;;;;0.94;73.21;100889.16;5068109;28;20361;-63
2024/02/24 00:03:57;;;;;;;12.93;6.65;;;;;;;0.88;72.98;100900.88;5054370;28;20132;-62
2024/02/24 00:06:24;;;;;;;11.82;6.03;;;;;;;0.81;73.18;100901.38;5036926;28;20057;-65
2024/02/24 00:08:52;;;;;;;12.13;6.15;;;;;;;0.79;73.25;100886.72;5037716;28;20029;-63
2024/02/24 00:11:20;;;;;;;11.45;5.50;;;;;;;0.77;73.05;100876.41;5047745;28;20055;-63
2024/02/24 00:13:49;;;;;;;11.48;6.18;;;;;;;0.82;73.40;100879.19;5036244;28;20036;-63
2024/02/24 00:16:15;;;;;;;11.65;6.05;;;;;;;0.84;73.58;100881.00;5031697;28;20461;-63
2024/02/24 00:18:41;;;;;;;12.15;5.85;;;;;;;0.89;73.66;100881.22;5053252;28;20052;-62
2024/02/24 00:21:08;;;;;;;10.30;5.15;;;;;;;0.92;72.86;100893.31;5053503;28;20506;-62
2024/02/24 00:23:35;;;;;;;11.70;6.18;;;;;;;0.86;73.24;100887.09;5024649;28;20127;-62
2024/02/24 00:26:01;;;;;;;10.07;5.88;;;;;;;0.79;73.26;100867.09;5050957;28;20036;-62
2024/02/24 00:28:27;;;;;;;9.65;5.35;;;;;;;0.90;73.31;100895.78;5036474;28;20040;-62
2024/02/24 00:30:54;;;;;;;17.35;5.72;;;;;;;0.87;72.96;100921.31;5054972;28;20036;-63
2024/02/24 00:33:20;;;;;;;10.60;5.18;;;;;;;0.77;72.82;100906.28;5053708;28;20574;-62
2024/02/24 00:35:46;;;;;;;10.32;5.55;;;;;;;0.78;73.47;100887.53;5050922;28;20044;-63
2024/02/24 00:38:13;;;;;;;11.00;5.75;;;;;;;0.85;73.67;100885.34;5033928;28;20040;-61
2024/02/24 00:40:39;;;;;;;11.23;6.13;;;;;;;0.98;73.60;100888.50;5053165;28;20116;-62
2024/02/24 00:43:04;;;;;;;11.00;6.43;;;;;;;0.99;73.36;100892.81;5053622;28;20048;-62
2024/02/24 00:45:30;;;;;;;14.98;6.75;;;;;;;0.98;73.48;100885.94;5054012;28;20070;-62
2024/02/24 00:47:56;;;;;;;10.00;5.35;;;;;;;0.99;73.09;100913.31;5032355;28;20095;-63
2024/02/24 00:50:28;;;;;;;10.52;5.63;;;;;;;0.97;72.74;100899.56;5036425;28;20040;-65
2024/02/24 00:52:55;;;;;;;10.38;5.95;;;;;;;0.97;73.29;100899.56;5024506;28;20186;-62
2024/02/24 00:55:22;;;;;;;12.52;5.90;;;;;;;0.87;73.16;100908.50;5069524;28;20143;-63
2024/02/24 00:57:49;;;;;;;14.50;7.15;;;;;;;0.82;73.10;100903.13;5052588;28;20076;-64
2024/02/24 01:00:17;;;;;;;13.70;6.93;;;;;;;0.86;73.38;100906.72;5053772;28;20048;-63
2024/02/24 01:02:44;;;;;;;13.57;7.40;;;;;;;0.82;73.20;100884.31;5053333;28;20419;-63
2024/02/24 01:05:10;;;;;;;13.80;6.88;;;;;;;0.59;72.81;100855.91;5054691;28;20570;-62
2024/02/24 01:07:36;;;;;;;11.25;6.40;;;;;;;0.58;72.67;100862.69;5057979;28;20127;-64
2024/02/24 01:10:04;;;;;;;11.68;6.38;;;;;;;0.68;72.40;100884.50;5056472;28;20426;-63
2024/02/24 01:12:34;;;;;;;12.85;6.95;;;;;;;0.66;73.46;100867.31;5029335;28;20036;-63
2024/02/24 01:15:07;;;;;;;20.33;7.35;;;;;;;0.89;73.07;100940.16;5039542;28;20040;-62
2024/02/24 01:17:40;;;;;;;13.75;6.90;;;;;;;0.57;72.88;100873.75;5054619;28;20033;-64
2024/02/24 01:20:10;;;;;;;13.15;7.57;;;;;;;0.83;73.18;100921.97;5039811;28;20052;-63
2024/02/24 01:22:39;;;;;;;13.82;7.25;;;;;;;0.79;73.22;100905.53;5033234;28;20052;-62
2024/02/24 01:25:10;;;;;;;12.48;7.57;;;;;;;0.54;72.59;100878.75;5040310;28;20052;-62
2024/02/24 01:27:40;;;;;;;13.35;7.32;;;;;;;0.66;72.92;100885.25;5021909;28;20132;-62
2024/02/24 01:30:07;;;;;;;15.40;7.47;;;;;;;0.79;73.30;100926.03;5034398;28;20040;-61
2024/02/24 01:32:36;;;;;;;13.40;7.25;;;;;;;0.74;72.96;100930.06;5056134;28;20032;-62
2024/02/24 01:35:03;;;;;;;15.65;7.38;;;;;;;0.67;72.64;100915.19;5023833;28;20056;-62
2024/02/24 01:37:30;;;;;;;13.45;7.55;;;;;;;0.74;72.69;100937.75;5055983;28;20028;-62
2024/02/24 01:39:56;;;;;;;14.20;7.72;;;;;;;0.58;72.82;100906.25;5040542;28;20137;-62
2024/02/24 01:42:22;;;;;;;13.38;7.32;;;;;;;0.65;73.15;100919.38;5041547;28;20146;-62
2024/02/24 01:44:48;;;;;;;15.45;7.80;;;;;;;0.70;72.82;100928.16;5057739;28;20098;-62
2024/02/24 01:47:16;;;;;;;16.10;7.63;;;;;;;0.66;72.87;100921.13;5043568;28;20495;-63
2024/02/24 01:49:43;;;;;;;14.48;7.60;;;;;;;0.77;72.62;100953.28;5056491;28;20596;-63
2024/02/24 01:52:10;;;;;;;13.02;6.97;;;;;;;0.59;72.78;100928.50;5055780;28;20126;-62
2024/02/24 01:54:37;;;;;;;15.57;8.27;;;;;;;0.70;72.53;100939.28;5055652;28;20041;-62
2024/02/24 01:57:07;;;;;;;16.08;7.75;;;;;;;0.65;72.70;100932.16;5054384;28;20109;-62
2024/02/24 01:59:33;;;;;;;15.82;8.43;;;;;;;0.63;72.96;100946.59;5028430;28;20494;-65
2024/02/24 02:01:59;;;;;;;15.20;7.35;;;;;;;0.67;72.78;100951.94;5035058;28;20613;-63
2024/02/24 02:04:26;;;;;;;13.38;7.07;;;;;;;0.69;72.96;100942.63;5038600;28;20051;-62
2024/02/24 02:06:52;;;;;;;17.58;8.20;;;;;;;0.71;72.53;100941.03;5056616;28;20368;-62
2024/02/24 02:09:18;;;;;;;13.75;7.70;;;;;;;0.70;72.93;100935.84;5057486;28;20131;-63
2024/02/24 02:11:44;;;;;;;17.10;7.35;;;;;;;0.77;72.77;100942.16;5037897;28;20917;-62
2024/02/24 02:14:11;;;;;;;15.82;8.60;;;;;;;0.71;72.14;100945.28;5055254;28;20032;-62
2024/02/24 02:16:38;;;;;;;15.32;7.57;;;;;;;0.71;72.77;100937.59;5021648;28;20041;-62
2024/02/24 02:19:04;;;;;;;14.02;7.47;;;;;;;0.75;73.20;100954.91;5049856;28;20037;-62
2024/02/24 02:21:35;;;;;;;17.23;7.00;;;;;;;0.61;72.69;100936.28;5057555;28;20047;-63
2024/02/24 02:24:04;;;;;;;15.10;8.07;;;;;;;0.66;73.63;100931.38;5042470;28;20067;-62
2024/02/24 02:26:29;;;;;;;15.68;8.18;;;;;;;0.76;72.76;100951.53;5036708;28;20071;-62
2024/02/24 02:28:55;;;;;;;15.82;8.50;;;;;;;0.80;72.34;100950.84;5055171;28;20032;-63
2024/02/24 02:31:21;;;;;;;16.88;8.52;;;;;;;0.78;73.26;100949.91;5054874;28;20040;-63
2024/02/24 02:33:47;;;;;;;17.05;10.00;;;;;;;0.87;72.58;100959.75;5041020;28;20629;-63
2024/02/24 02:36:13;;;;;;;18.67;9.30;;;;;;;0.81;72.44;100944.06;5054783;28;20040;-63
2024/02/24 02:38:39;;;;;;;19.10;9.35;;;;;;;0.81;72.80;100936.38;5054414;28;20085;-63
2024/02/24 02:41:06;;;;;;;15.23;8.65;;;;;;;0.87;72.61;100954.63;5017233;28;20098;-63
2024/02/24 02:43:34;;;;;;;14.73;8.20;;;;;;;0.72;72.64;100931.69;5054484;28;20605;-62
2024/02/24 02:46:00;;;;;;;19.20;9.30;;;;;;;0.49;72.85;100899.78;5054162;28;20135;-62
2024/02/24 02:48:26;;;;;;;19.58;9.93;;;;;;;0.92;72.79;100960.84;5052764;28;20036;-63
2024/02/24 02:50:53;;;;;;;18.23;8.98;;;;;;;0.61;72.12;100905.53;5055741;28;20131;-63
2024/02/24 02:53:19;;;;;;;19.73;10.10;;;;;;;0.73;72.78;100938.56;5051181;28;20041;-63
2024/02/24 02:55:45;;;;;;;19.30;8.68;;;;;;;0.63;72.14;100939.78;5056538;28;20052;-63
2024/02/24 02:58:11;;;;;;;17.58;9.35;;;;;;;0.71;72.39;100950.41;5055910;28;20082;-64
2024/02/24 03:00:37;;;;;;;19.05;8.95;;;;;;;0.78;72.60;100966.97;5058877;28;20131;-63
2024/02/24 03:03:03;;;;;;;19.25;8.57;;;;;;;0.74;72.14;100942.88;5026018;28;20517;-63
2024/02/24 03:05:30;;;;;;;18.75;9.93;;;;;;;0.85;72.75;100956.22;5055192;28;20135;-64
2024/02/24 03:07:56;;;;;;;16.58;8.98;;;;;;;0.78;72.91;100942.22;5053340;28;20048;-64
2024/02/24 03:10:22;;;;;;;17.60;9.95;;;;;;;0.73;72.68;100931.75;5054820;28;20432;-63
2024/02/24 03:12:48;;;;;;;19.10;10.23;;;;;;;0.96;72.97;100961.88;5055240;28;20037;-64
2024/02/24 03:15:14;;;;;;;20.98;9.45;;;;;;;0.82;71.90;100974.00;5060636;28;20055;-64
2024/02/24 03:17:40;;;;;;;20.45;9.90;;;;;;;0.84;72.41;100963.03;5019708;28;20040;-64
2024/02/24 03:20:08;;;;;;;18.23;9.07;;;;;;;0.61;72.57;100926.03;5053464;28;20204;-63
2024/02/24 03:22:34;;;;;;;18.33;9.57;;;;;;;0.65;71.94;100937.28;5054390;28;20060;-64
2024/02/24 03:25:00;;;;;;;20.75;10.57;;;;;;;0.79;72.25;100971.28;5034777;28;20072;-62
2024/02/24 03:27:26;;;;;;;22.15;10.80;;;;;;;0.80;72.25;100958.53;5039469;28;20075;-64
2024/02/24 03:29:52;;;;;;;19.10;10.15;;;;;;;0.62;72.43;100944.81;5034367;28;20076;-64
2024/02/24 03:32:18;;;;;;;21.67;10.60;;;;;;;0.66;72.16;100932.28;5036637;28;20084;-63
2024/02/24 03:34:44;;;;;;;20.00;9.75;;;;;;;0.83;72.16;100958.69;5054508;28;20183;-63
2024/02/24 03:37:11;;;;;;;21.17;10.38;;;;;;;0.83;71.96;100952.72;5019575;28;20038;-63
2024/02/24 03:39:38;;;;;;;21.42;10.88;;;;;;;0.82;72.24;100956.06;5053955;28;20083;-64
2024/02/24 03:42:04;;;;;;;19.80;9.85;;;;;;;0.79;72.55;100972.16;5054005;28;20094;-64
2024/02/24 03:44:30;;;;;;;21.48;11.10;;;;;;;0.86;72.04;100968.25;5032193;28;20044;-62
2024/02/24 03:46:58;;;;;;;20.88;10.13;;;;;;;0.72;72.15;100965.84;5037560;28;20528;-65
2024/02/24 03:49:24;;;;;;;20.23;9.68;;;;;;;0.71;72.12;100958.09;5057231;28;20087;-64
2024/02/24 03:51:50;;;;;;;19.20;9.77;;;;;;;0.76;71.88;100966.91;5038480;28;20028;-63
2024/02/24 03:54:17;;;;;;;18.13;10.10;;;;;;;0.62;72.38;100960.19;5054698;28;20762;-65
2024/02/24 03:56:43;;;;;;;20.55;9.70;;;;;;;0.67;71.90;100975.00;5036619;28;20444;-63
2024/02/24 03:59:09;;;;;;;22.73;11.50;;;;;;;0.77;72.24;100984.03;5055045;28;20064;-63
2024/02/24 04:01:35;;;;;;;18.67;10.43;;;;;;;0.77;72.59;100976.34;5056959;28;20127;-63
2024/02/24 04:04:00;;;;;;;24.30;9.63;;;;;;;0.86;72.10;100993.88;5053070;28;20533;-64
2024/02/24 04:06:26;;;;;;;23.40;11.00;;;;;;;0.81;71.57;100988.50;5032113;28;20135;-62
2024/02/24 04:08:52;;;;;;;24.33;9.20;;;;;;;0.56;71.41;100971.88;5055864;28;20442;-64
2024/02/24 04:11:18;;;;;;;20.90;9.75;;;;;;;0.60;72.13;100971.25;5054022;28;20135;-63
2024/02/24 04:13:45;;;;;;;21.73;9.88;;;;;;;0.52;71.79;100970.00;5037394;28;21441;-62
2024/02/24 04:16:11;;;;;;;18.48;9.98;;;;;;;0.62;71.52;100991.84;5037481;28;20074;-63
2024/02/24 04:18:39;;;;;;;20.52;10.13;;;;;;;0.67;71.99;100982.69;5019446;28;20098;-63
2024/02/24 04:21:05;;;;;;;19.85;10.95;;;;;;;0.59;72.18;100968.63;5047560;28;20797;-63
2024/02/24 04:23:31;;;;;;;21.63;10.27;;;;;;;0.72;72.53;101003.44;5054767;28;20032;-64
2024/02/24 04:25:58;;;;;;;20.80;9.50;;;;;;;0.69;71.92;100993.03;5052923;28;20118;-67
2024/02/24 04:28:25;;;;;;;21.30;11.07;;;;;;;0.74;72.15;101009.50;5037484;28;21555;-64
2024/02/24 04:30:51;;;;;;;22.95;9.95;;;;;;;0.73;71.63;101000.06;5053381;28;20051;-63
2024/02/24 04:33:17;;;;;;;17.90;9.55;;;;;;;0.49;72.12;100971.50;5040230;28;20068;-65
2024/02/24 04:35:43;;;;;;;20.15;9.98;;;;;;;0.70;71.84;101011.03;5053780;28;20079;-63
2024/02/24 04:38:09;;;;;;;22.60;10.88;;;;;;;0.67;72.36;101015.13;5052851;28;20085;-63
2024/02/24 04:40:40;;;;;;;22.45;11.20;;;;;;;0.73;71.76;101015.44;5049241;28;20036;-63
2024/02/24 04:43:08;;;;;;;19.83;9.38;;;;;;;0.73;71.70;101020.56;5003137;28;20654;-63
2024/02/24 04:45:36;;;;;;;21.05;10.13;;;;;;;0.72;72.66;101027.34;5052082;28;20045;-63
2024/02/24 04:48:03;;;;;;;23.40;10.85;;;;;;;0.74;71.98;101017.19;5033982;28;20064;-64
2024/02/24 04:50:29;;;;;;;20.67;11.13;;;;;;;0.56;72.27;100971.03;5052062;28;20049;-62
2024/02/24 04:52:55;;;;;;;22.02;10.18;;;;;;;0.77;71.96;100999.41;5037133;28;20036;-64
2024/02/24 04:55:21;;;;;;;23.20;10.32;;;;;;;0.66;71.76;100957.88;5018631;28;20540;-62
2024/02/24 04:57:47;;;;;;;23.13;11.13;;;;;;;0.71;71.74;100992.28;5052363;28;20032;-64
2024/02/24 05:00:13;;;;;;;19.20;9.75;;;;;;;0.54;71.71;100977.75;5053523;28;20116;-63
2024/02/24 05:02:39;;;;;;;22.17;9.88;;;;;;;0.67;71.83;100992.94;5033287;28;20045;-63
2024/02/24 05:05:05;;;;;;;20.02;9.82;;;;;;;0.78;71.55;101008.84;5053452;28;20049;-63
2024/02/24 05:07:31;;;;;;;21.50;10.55;;;;;;;0.74;71.74;101032.56;5054523;28;20029;-63
2024/02/24 05:10:00;;;;;;;19.80;9.80;;;;;;;0.79;71.62;101037.94;5036964;28;20063;-63
2024/02/24 05:12:26;;;;;;;18.70;10.10;;;;;;;0.65;71.69;101003.91;5033319;28;20047;-65
2024/02/24 05:14:52;;;;;;;20.23;10.10;;;;;;;0.60;71.44;101011.38;5018307;28;20045;-64
2024/02/24 05:17:23;;;;;;;22.52;9.70;;;;;;;0.68;72.07;101009.19;5031500;28;20109;-64
2024/02/24 05:19:49;;;;;;;18.95;9.93;;;;;;;0.66;72.41;100990.28;5048326;28;20045;-63
2024/02/24 05:22:15;;;;;;;18.88;9.60;;;;;;;0.89;71.70;101040.13;5052613;28;20076;-63
2024/02/24 05:24:42;;;;;;;21.05;9.23;;;;;;;0.88;71.77;101029.00;5052645;28;20072;-63
2024/02/24 05:27:08;;;;;;;22.00;10.27;;;;;;;0.80;71.64;101009.78;5052591;28;20041;-64
2024/02/24 05:29:44;;;;;;;18.17;8.95;;;;;;;0.71;71.03;101002.53;5054539;28;20056;-63
2024/02/24 05:32:16;;;;;;;17.25;9.43;;;;;;;0.84;71.27;101049.31;5039238;28;20445;-63
2024/02/24 05:34:43;;;;;;;21.95;9.85;;;;;;;0.80;72.02;101014.06;5053582;28;20426;-63
2024/02/24 05:37:21;;;;;;;20.05;9.60;;;;;;;0.84;71.49;101011.72;5037854;28;20463;-64
2024/02/24 05:39:50;;;;;;;22.13;9.73;;;;;;;0.89;71.30;101028.22;5053176;28;20040;-64
2024/02/24 05:42:16;;;;;;;19.27;9.75;;;;;;;0.88;71.63;101029.00;5031497;28;20059;-63
2024/02/24 05:44:42;;;;;;;24.08;10.63;;;;;;;0.83;72.13;101017.66;5054324;28;20059;-62
2024/02/24 05:47:08;;;;;;;18.80;9.60;;;;;;;0.81;71.30;100996.19;5056062;28;20049;-63
2024/02/24 05:49:34;;;;;;;20.80;9.60;;;;;;;0.87;72.00;100988.81;5052099;28;20045;-64
2024/02/24 05:52:02;;;;;;;20.10;9.35;;;;;;;0.97;71.68;101007.22;5056474;28;20072;-71
2024/02/24 05:54:28;;;;;;;18.23;9.23;;;;;;;0.58;71.36;100971.97;5023963;28;20052;-66
2024/02/24 05:56:54;;;;;;;20.00;8.82;;;;;;;0.70;71.26;100987.09;5035441;28;20037;-63
2024/02/24 05:59:20;;;;;;;18.85;9.77;;;;;;;0.87;71.19;101011.00;5051559;28;20411;-63
2024/02/24 06:01:46;;;;;;;17.10;7.82;;;;;;;0.84;71.10;101021.97;5032786;28;20132;-62
2024/02/24 06:04:15;;;;;;;19.88;9.43;;;;;;;0.77;70.80;101012.25;5058612;28;20052;-61
2024/02/24 06:06:41;;;;;;;18.73;8.88;;;;;;;0.77;71.56;101011.34;5041483;28;20052;-62
2024/02/24 06:09:07;;;;;;;19.00;8.68;;;;;;;0.70;71.31;101010.16;5033520;28;20032;-60
2024/02/24 06:11:33;;;;;;;19.88;9.30;;;;;;;0.76;71.94;100995.09;5052994;28;20067;-64
2024/02/24 06:13:59;;;;;;;19.30;9.07;;;;;;;0.99;71.24;101021.84;5025404;28;20036;-63
2024/02/24 06:16:26;;;;;;;19.27;8.73;;;;;;;1.02;71.77;101026.25;5042865;28;20049;-66
2024/02/24 06:18:52;;;;;;;18.42;9.07;;;;;;;0.95;71.77;101017.38;5019684;28;20065;-64
2024/02/24 06:21:18;;;;;;;15.57;7.95;;;;;;;1.11;70.85;101051.47;5055133;28;20048;-66
2024/02/24 06:23:44;;;;;;;21.65;9.05;;;;;;;0.91;71.14;101023.16;5053686;28;20358;-66
2024/02/24 06:26:10;;;;;;;20.13;9.48;;;;;;;0.90;71.57;101014.59;5039291;28;20558;-63
2024/02/24 06:28:38;;;;;;;20.60;8.73;;;;;;;1.02;71.18;101047.66;5043863;28;20041;-64
2024/02/24 06:31:08;;;;;;;18.92;8.70;;;;;;;0.35;71.19;100942.63;5039486;28;20406;-65
2024/02/24 06:33:37;;;;;;;19.73;8.88;;;;;;;0.87;71.45;101037.50;5035599;28;20040;-69
2024/02/24 06:36:03;;;;;;;18.85;9.25;;;;;;;0.90;70.97;101036.78;5055715;28;20139;-64
2024/02/24 06:38:30;;;;;;;21.50;9.68;;;;;;;0.97;70.91;101038.84;5060052;28;20117;-66
2024/02/24 06:40:57;;;;;;;18.52;9.02;;;;;;;0.74;71.11;100999.25;5042628;28;20037;-66
2024/02/24 06:43:26;;;;;;;19.15;8.18;;;;;;;0.97;70.91;101037.97;5057096;28;20475;-64
2024/02/24 06:45:52;;;;;;;18.40;9.10;;;;;;;0.99;70.99;101068.00;5042934;28;20071;-65
2024/02/24 06:48:21;;;;;;;16.98;7.80;;;;;;;1.02;71.28;101051.88;5058517;28;20502;-64
2024/02/24 06:50:47;;;;;;;19.48;8.48;;;;;;;1.05;70.57;101063.19;5056513;28;20482;-65
2024/02/24 06:53:13;;;;;;;19.27;9.32;;;;;;;1.04;71.08;101055.41;5058271;28;20041;-66
2024/02/24 06:55:41;;;;;;;19.08;9.05;;;;;;;1.01;70.62;101066.41;5040696;28;20045;-64
2024/02/24 06:58:07;;;;;;;18.35;9.13;;;;;;;1.09;71.23;101064.22;5053260;28;20041;-65
2024/02/24 07:00:37;;;;;;;18.75;8.60;;;;;;;1.20;71.29;101069.88;5056313;28;20080;-65
2024/02/24 07:03:03;;;;;;;18.35;9.48;;;;;;;1.27;71.28;101048.88;5063477;28;20044;-66
2024/02/24 07:05:31;;;;;;;21.17;9.32;;;;;;;1.32;70.41;101073.06;5060840;28;20081;-65
2024/02/24 07:08:00;;;;;;;18.35;8.32;;;;;;;1.25;70.17;101070.09;5040946;28;20458;-66
2024/02/24 07:10:26;;;;;;;16.10;8.27;;;;;;;1.00;69.99;101023.63;5060497;28;20078;-65
2024/02/24 07:12:55;;;;;;;16.52;8.05;;;;;;;1.17;71.08;101044.06;5077885;28;20038;-64
2024/02/24 07:15:23;;;;;;;17.73;7.97;;;;;;;1.35;70.23;101082.59;5058278;28;20122;-67
2024/02/24 07:17:49;;;;;;;18.45;9.38;;;;;;;1.44;70.99;101082.16;5027193;28;20755;-63
2024/02/24 07:20:15;;;;;;;20.63;9.52;;;;;;;1.33;70.00;101082.50;5072538;28;20043;-63
2024/02/24 07:22:48;;;;;;;15.52;8.52;;;;;;;1.40;70.53;101069.97;5032860;28;20558;-65
2024/02/24 07:25:16;;;;;;;16.67;8.35;;;;;;;1.44;70.20;101071.88;5021212;28;20058;-64
2024/02/24 07:27:50;;;;;;;16.65;8.77;;;;;;;1.33;70.17;101053.41;5037855;28;20035;-64
2024/02/24 07:30:18;;;;;;;19.15;9.63;;;;;;;1.46;70.47;101042.06;5047134;28;20044;-68
2024/02/24 07:32:45;;;;;;;17.65;9.15;;;;;;;1.48;69.87;101054.13;5034633;28;20139;-67
2024/02/24 07:35:11;;;;;;;16.35;8.55;;;;;;;1.43;70.26;101037.66;5048991;28;20045;-66
2024/02/24 07:37:37;;;;;;;15.40;8.23;;;;;;;1.67;70.13;101057.59;5068743;28;20453;-67
2024/02/24 07:40:03;;;;;;;15.63;8.10;;;;;;;1.71;69.97;101061.19;5020195;28;20075;-67
2024/02/24 07:42:30;;;;;;;14.85;7.72;;;;;;;1.72;69.73;101056.13;5032584;28;20760;-66
2024/02/24 07:44:59;;;;;;;16.58;8.07;;;;;;;1.53;69.54;101026.16;5041258;28;20040;-67
2024/02/24 07:47:26;;;;;;;17.42;8.90;;;;;;;1.68;70.07;101058.47;5030262;28;20578;-66
2024/02/24 07:49:52;;;;;;;18.27;9.35;;;;;;;1.76;70.19;101032.38;5050653;28;20078;-65
2024/02/24 07:52:18;;;;;;;14.82;8.27;;;;;;;1.78;69.34;101041.03;5032078;28;20051;-67
2024/02/24 07:54:44;;;;;;;16.65;8.38;;;;;;;1.78;69.07;101038.44;5035521;28;20040;-65
2024/02/24 07:57:10;;;;;;;17.95;9.30;;;;;;;1.83;69.52;101041.22;5067596;28;20059;-67
2024/02/24 07:59:37;;;;;;;18.08;9.57;;;;;;;1.56;68.95;100980.09;5039102;28;20051;-66
2024/02/24 08:02:03;;;;;;;15.77;7.72;;;;;;;2.00;69.71;101052.28;5001478;28;20040;-65
2024/02/24 08:04:30;;;;;;;16.38;8.05;;;;;;;2.00;69.01;101048.81;5046254;28;20053;-66
2024/02/24 08:06:56;;;;;;;15.98;8.63;;;;;;;2.00;69.10;101064.22;5045766;28;20089;-66
2024/02/24 08:09:23;;;;;;;17.08;8.73;;;;;;;1.92;69.19;101043.34;5047852;28;20039;-65
2024/02/24 08:11:49;;;;;;;13.40;6.82;;;;;;;1.97;68.40;101090.66;5063748;28;20040;-66
2024/02/24 08:14:15;;;;;;;18.92;9.38;;;;;;;1.70;68.74;101044.03;5051714;28;20044;-67
2024/02/24 08:16:41;;;;;;;14.30;7.47;;;;;;;1.87;68.85;101070.50;5046924;28;20094;-67
2024/02/24 08:19:07;;;;;;;14.52;7.30;;;;;;;2.02;69.07;101094.31;5047564;28;20060;-72
2024/02/24 08:21:36;;;;;;;18.13;9.07;;;;;;;1.81;68.29;101065.94;5042779;28;20045;-71
2024/02/24 08:24:09;;;;;;;17.10;8.88;;;;;;;1.90;69.31;101070.63;5030652;28;20107;-67
2024/02/24 08:26:39;;;;;;;17.92;9.25;;;;;;;1.95;68.42;101069.16;5031538;28;20146;-72
2024/02/24 08:29:06;;;;;;;17.08;9.85;;;;;;;2.20;69.08;101109.72;5025783;28;20042;-70
2024/02/24 08:31:34;;;;;;;17.02;9.10;;;;;;;1.98;68.66;101059.03;5015130;28;20041;-72
2024/02/24 08:34:00;;;;;;;16.77;9.73;;;;;;;2.02;68.74;101063.50;5047540;28;20037;-68
2024/02/24 08:36:26;;;;;;;17.15;7.85;;;;;;;2.12;68.32;101080.22;5047770;28;21055;-66
2024/02/24 08:38:52;;;;;;;21.45;10.25;;;;;;;2.08;68.42;101070.59;5042825;28;20486;-65
2024/02/24 08:41:18;;;;;;;18.10;8.95;;;;;;;2.26;68.56;101084.28;5029605;28;20041;-69
2024/02/24 08:43:45;;;;;;;16.77;9.57;;;;;;;2.26;67.91;101120.25;5029720;28;20039;-67
2024/02/24 08:46:11;;;;;;;21.13;9.60;;;;;;;2.16;68.12;101076.97;5045561;28;20071;-70
2024/02/24 08:48:37;;;;;;;18.70;9.48;;;;;;;1.82;68.47;101033.47;5042942;28;20127;-70
2024/02/24 08:51:06;;;;;;;17.73;9.50;;;;;;;1.91;68.54;101029.63;5028885;28;20047;-68
2024/02/24 08:53:32;;;;;;;20.33;9.23;;;;;;;2.16;68.12;101094.06;5046395;28;20053;-68
2024/02/24 08:56:01;;;;;;;16.55;9.25;;;;;;;2.13;68.13;101060.53;5045702;28;20051;-65
2024/02/24 08:58:28;;;;;;;19.60;9.45;;;;;;;2.26;68.53;101057.72;5046313;28;20131;-67
2024/02/24 09:00:56;;;;;;;19.33;8.52;;;;;;;2.47;67.42;101080.91;5046052;28;20053;-65
2024/02/24 09:03:24;;;;;;;19.42;9.40;;;;;;;2.34;67.42;101071.78;5057108;28;20045;-67
2024/02/24 09:05:50;;;;;;;20.77;10.23;;;;;;;2.50;68.08;101082.75;5067545;28;20410;-66
2024/02/24 09:08:16;;;;;;;15.05;8.27;;;;;;;2.45;67.22;101085.09;5071432;28;20500;-69
2024/02/24 09:10:42;;;;;;;16.33;8.40;;;;;;;2.39;67.34;101108.84;5067286;28;20109;-68
2024/02/24 09:13:09;;;;;;;17.20;8.57;;;;;;;2.32;67.66;101096.50;5069492;28;20612;-66
2024/02/24 09:15:35;;;;;;;19.23;9.25;;;;;;;1.96;66.87;101029.84;5039085;28;20462;-65
2024/02/24 09:18:01;;;;;;;17.25;9.20;;;;;;;2.49;67.99;101101.56;5070138;28;20036;-69
2024/02/24 09:20:28;;;;;;;21.05;9.05;;;;;;;2.49;67.31;101079.28;5037723;28;20040;-68
2024/02/24 09:22:54;;;;;;;18.25;9.18;;;;;;;2.48;67.49;101082.69;5056087;28;20048;-68
2024/02/24 09:25:21;;;;;;;15.43;8.82;;;;;;;2.26;67.42;101038.03;5033458;28;20373;-72
2024/02/24 09:27:48;;;;;;;18.10;8.77;;;;;;;2.61;66.85;101088.38;5041573;28;20569;-74
2024/02/24 09:30:14;;;;;;;19.25;9.35;;;;;;;2.51;67.09;101092.22;5059025;28;20040;-71
2024/02/24 09:32:41;;;;;;;15.95;8.05;;;;;;;2.30;66.67;101059.63;5040838;28;20067;-72
2024/02/24 09:35:27;;;;;;;17.77;7.85;;;;;;;2.52;67.43;101092.28;5039572;28;20036;-71
2024/02/24 09:38:44;;;;;;;16.42;8.05;;;;;;;2.47;66.81;101104.03;5036689;28;20036;-72
2024/02/24 09:41:11;;;;;;;17.23;8.65;;;;;;;2.24;66.59;101095.31;5054520;28;20047;-70
2024/02/24 09:43:50;;;;;;;16.65;8.65;;;;;;;2.29;66.64;101105.78;5054563;28;20048;-73
2024/02/24 09:46:17;;;;;;;17.42;8.70;;;;;;;2.37;67.64;101107.88;5055252;28;20051;-71
2024/02/24 09:48:46;;;;;;;17.40;9.05;;;;;;;2.45;67.23;101104.81;5074285;28;20036;-70
2024/02/24 09:51:17;;;;;;;16.73;9.63;;;;;;;2.22;67.07;101072.09;5013239;28;20413;-71
2024/02/24 09:53:44;;;;;;;15.63;9.15;;;;;;;2.63;66.74;101100.47;5035806;28;20032;-73
2024/02/24 09:56:23;;;;;;;18.55;9.55;;;;;;;2.72;66.62;101110.28;5037920;28;20076;-72
2024/02/24 09:58:53;;;;;;;13.93;7.70;;;;;;;2.53;66.80;101070.91;5031935;28;20044;-71
2024/02/24 10:01:25;;;;;;;16.70;8.43;;;;;;;2.53;66.65;101064.91;5040859;28;20044;-73
2024/02/24 10:03:54;;;;;;;15.82;8.60;;;;;;;2.50;66.14;101096.47;5053634;28;20063;-70
2024/02/24 10:06:46;;;;;;;;;;;;;;;;;;;;;
2024/02/24 10:09:19;;;;;;;13.30;7.32;;;;;;;2.06;66.21;101051.69;5026948;28;20032;-73
2024/02/24 10:11:45;;;;;;;16.48;8.30;;;;;;;2.15;66.22;101085.50;5042041;28;20065;-78
2024/02/24 10:14:15;;;;;;;15.27;7.82;;;;;;;2.19;66.30;101109.63;5068992;28;20044;-70
2024/02/24 10:17:14;;;;;;;16.25;8.85;;;;;;;2.22;66.88;101066.97;5041044;28;20044;-72
2024/02/24 10:19:41;;;;;;;16.73;7.45;;;;;;;1.93;65.94;101027.13;5045302;28;20052;-72
2024/02/24 10:22:14;;;;;;;16.55;7.38;;;;;;;2.55;66.44;101127.50;5051792;28;20055;-72
2024/02/24 10:24:48;;;;;;;17.42;8.55;;;;;;;2.48;66.28;101120.34;5034761;28;20036;-69
2024/02/24 10:27:25;;;;;;;14.52;7.97;;;;;;;2.36;66.51;101103.56;5071597;28;20196;-69
2024/02/24 10:29:57;;;;;;;15.15;7.90;;;;;;;2.52;66.71;101118.00;5034884;28;20054;-69
2024/02/24 10:32:24;;;;;;;16.10;7.88;;;;;;;2.55;66.06;101138.69;5018464;28;20047;-69
2024/02/24 10:35:00;;;;;;;15.93;8.20;;;;;;;2.23;65.97;101068.72;5052228;28;20048;-67
2024/02/24 10:37:27;;;;;;;13.98;7.28;;;;;;;2.14;65.89;101046.88;5068194;28;20044;-67
2024/02/24 10:39:59;;;;;;;16.00;7.63;;;;;;;2.46;66.10;101096.28;5035218;28;20162;-69
2024/02/24 10:42:30;;;;;;;16.45;7.78;;;;;;;2.47;66.34;101128.88;5050634;28;20135;-68
2024/02/24 10:45:09;;;;;;;16.77;7.97;;;;;;;2.17;66.35;101052.16;5055700;28;20036;-69
2024/02/24 10:47:36;;;;;;;15.57;7.40;;;;;;;2.37;65.99;101105.31;5036243;28;20144;-66
2024/02/24 10:50:10;;;;;;;15.00;7.88;;;;;;;2.43;66.33;101080.72;5038499;28;20476;-68
2024/02/24 10:52:48;;;;;;;;;;;;;;;2.76;66.53;101109.59;5071947;28;20177;-73
2024/02/24 10:55:24;;;;;;;12.57;7.10;;;;;;;2.78;66.12;101127.66;5074499;28;20393;-73
2024/02/24 10:57:54;;;;;;;14.13;6.70;;;;;;;2.64;65.90;101112.53;5034354;28;20032;-73
2024/02/24 11:00:34;;;;;;;16.13;8.05;;;;;;;2.65;65.83;101114.28;5045930;28;20042;-71
2024/02/24 11:03:09;;;;;;;15.80;7.90;;;;;;;2.65;65.98;101114.28;5017227;28;20103;-74
2024/02/24 11:05:36;;;;;;;13.65;7.95;;;;;;;2.78;65.91;101109.66;5035988;28;20060;-70
2024/02/24 11:08:54;;;;;;;15.77;7.40;;;;;;;2.89;65.59;101108.47;5021222;28;20040;-70
2024/02/24 11:11:20;;;;;;;15.45;7.90;;;;;;;2.86;65.95;101092.88;5014191;28;20052;-68
2024/02/24 11:13:47;;;;;;;14.20;7.25;;;;;;;2.97;65.25;101117.41;5030984;28;20052;-70
2024/02/24 11:16:18;;;;;;;16.13;7.60;;;;;;;3.04;65.90;101120.22;5013706;28;20060;-70
2024/02/24 11:18:49;;;;;;;16.05;7.13;;;;;;;2.99;65.22;101114.88;5031112;28;20075;-70
2024/02/24 11:21:15;;;;;;;12.52;7.22;;;;;;;3.05;65.25;101140.88;5030099;28;20044;-69
2024/02/24 11:23:44;;;;;;;15.18;7.72;;;;;;;2.76;65.80;101085.59;5021144;28;20048;-70
2024/02/24 11:26:20;;;;;;;15.95;8.15;;;;;;;3.05;65.57;101130.56;5032459;28;20869;-68
2024/02/24 11:28:59;;;;;;;14.98;7.70;;;;;;;2.77;65.24;101082.19;5011577;28;20040;-68
2024/02/24 11:32:09;;;;;;;11.10;6.43;;;;;;;2.97;64.93;101132.81;5015999;28;20043;-67